sensor_id;sensor_type;location;lat;lon;timestamp;P1;durP1;ratioP1;P2;durP2;ratioP2
4053;SDS011;2042;47.956;9.222;2024-03-25T00:00:12;3.10;;;2.40;;
4053;SDS011;2042;47.956;9.222;2024-03-25T00:02:39;2.27;;;2.07;;
4053;SDS011;2042;47.956;9.222;2024-03-25T00:05:06;4.60;;;2.07;;
4053;SDS011;2042;47.956;9.222;2024-03-25T00:07:34;1.73;;;1.53;;
4053;SDS011;2042;47.956;9.222;2024-03-25T00:10:03;2.80;;;2.20;;
4053;SDS011;2042;47.956;9.222;2024-03-25T00:12:31;3.00;;;2.77;;
4053;SDS011;2042;47.956;9.222;2024-03-25T00:14:57;3.30;;;2.47;;
4053;SDS011;2042;47.956;9.222;2024-03-25T00:17:23;4.63;;;4.07;;
4053;SDS011;2042;47.956;9.222;2024-03-25T00:19:48;6.00;;;4.20;;
4053;SDS011;2042;47.956;9.222;2024-03-25T00:22:17;5.97;;;4.97;;
4053;SDS011;2042;47.956;9.222;2024-03-25T00:24:44;7.03;;;4.50;;
4053;SDS011;2042;47.956;9.222;2024-03-25T00:27:16;6.07;;;3.80;;
4053;SDS011;2042;47.956;9.222;2024-03-25T00:29:42;3.53;;;3.00;;
4053;SDS011;2042;47.956;9.222;2024-03-25T00:32:09;3.47;;;3.17;;
4053;SDS011;2042;47.956;9.222;2024-03-25T00:34:35;3.67;;;3.30;;
4053;SDS011;2042;47.956;9.222;2024-03-25T00:37:01;3.93;;;2.73;;
4053;SDS011;2042;47.956;9.222;2024-03-25T00:39:29;3.20;;;2.90;;
4053;SDS011;2042;47.956;9.222;2024-03-25T00:41:57;3.77;;;3.20;;
4053;SDS011;2042;47.956;9.222;2024-03-25T00:44:23;3.53;;;3.23;;
4053;SDS011;2042;47.956;9.222;2024-03-25T00:46:48;5.23;;;4.27;;
4053;SDS011;2042;47.956;9.222;2024-03-25T00:49:14;4.83;;;4.33;;
4053;SDS011;2042;47.956;9.222;2024-03-25T00:51:40;12.13;;;4.33;;
4053;SDS011;2042;47.956;9.222;2024-03-25T00:54:06;7.53;;;4.00;;
4053;SDS011;2042;47.956;9.222;2024-03-25T00:56:32;4.80;;;4.10;;
4053;SDS011;2042;47.956;9.222;2024-03-25T00:58:58;11.80;;;5.00;;
4053;SDS011;2042;47.956;9.222;2024-03-25T01:01:28;5.87;;;4.13;;
4053;SDS011;2042;47.956;9.222;2024-03-25T01:03:54;4.60;;;3.90;;
4053;SDS011;2042;47.956;9.222;2024-03-25T01:06:20;4.70;;;3.67;;
4053;SDS011;2042;47.956;9.222;2024-03-25T01:08:45;5.70;;;3.30;;
4053;SDS011;2042;47.956;9.222;2024-03-25T01:11:11;4.00;;;2.63;;
4053;SDS011;2042;47.956;9.222;2024-03-25T01:13:37;3.67;;;1.97;;
4053;SDS011;2042;47.956;9.222;2024-03-25T01:16:02;3.20;;;1.80;;
4053;SDS011;2042;47.956;9.222;2024-03-25T01:18:28;1.80;;;1.40;;
4053;SDS011;2042;47.956;9.222;2024-03-25T01:20:54;2.00;;;1.90;;
4053;SDS011;2042;47.956;9.222;2024-03-25T01:23:19;1.50;;;1.40;;
4053;SDS011;2042;47.956;9.222;2024-03-25T01:25:45;1.80;;;1.70;;
4053;SDS011;2042;47.956;9.222;2024-03-25T01:28:11;2.13;;;1.40;;
4053;SDS011;2042;47.956;9.222;2024-03-25T01:30:36;2.40;;;1.93;;
4053;SDS011;2042;47.956;9.222;2024-03-25T01:33:04;1.30;;;1.20;;
4053;SDS011;2042;47.956;9.222;2024-03-25T01:35:30;1.83;;;1.73;;
4053;SDS011;2042;47.956;9.222;2024-03-25T01:37:56;2.13;;;1.70;;
4053;SDS011;2042;47.956;9.222;2024-03-25T01:40:22;2.53;;;1.97;;
4053;SDS011;2042;47.956;9.222;2024-03-25T01:42:57;1.40;;;1.30;;
4053;SDS011;2042;47.956;9.222;2024-03-25T01:45:28;3.37;;;1.33;;
4053;SDS011;2042;47.956;9.222;2024-03-25T01:47:56;1.93;;;1.40;;
4053;SDS011;2042;47.956;9.222;2024-03-25T01:50:22;3.23;;;2.00;;
4053;SDS011;2042;47.956;9.222;2024-03-25T01:52:49;2.30;;;1.57;;
4053;SDS011;2042;47.956;9.222;2024-03-25T01:55:16;4.03;;;2.43;;
4053;SDS011;2042;47.956;9.222;2024-03-25T01:57:44;2.23;;;2.03;;
4053;SDS011;2042;47.956;9.222;2024-03-25T02:00:11;2.80;;;2.60;;
4053;SDS011;2042;47.956;9.222;2024-03-25T02:02:37;2.80;;;2.47;;
4053;SDS011;2042;47.956;9.222;2024-03-25T02:05:06;2.37;;;2.10;;
4053;SDS011;2042;47.956;9.222;2024-03-25T02:07:34;2.20;;;2.00;;
4053;SDS011;2042;47.956;9.222;2024-03-25T02:10:02;4.37;;;2.80;;
4053;SDS011;2042;47.956;9.222;2024-03-25T02:12:29;4.30;;;2.00;;
4053;SDS011;2042;47.956;9.222;2024-03-25T02:14:58;2.63;;;2.10;;
4053;SDS011;2042;47.956;9.222;2024-03-25T02:17:24;2.83;;;2.50;;
4053;SDS011;2042;47.956;9.222;2024-03-25T02:19:50;2.57;;;2.37;;
4053;SDS011;2042;47.956;9.222;2024-03-25T02:22:17;2.47;;;2.17;;
4053;SDS011;2042;47.956;9.222;2024-03-25T02:24:44;5.23;;;1.60;;
4053;SDS011;2042;47.956;9.222;2024-03-25T02:27:11;1.90;;;1.80;;
4053;SDS011;2042;47.956;9.222;2024-03-25T02:29:40;1.93;;;1.77;;
4053;SDS011;2042;47.956;9.222;2024-03-25T02:32:07;2.60;;;2.40;;
4053;SDS011;2042;47.956;9.222;2024-03-25T02:34:37;2.70;;;1.90;;
4053;SDS011;2042;47.956;9.222;2024-03-25T02:37:04;3.00;;;2.80;;
4053;SDS011;2042;47.956;9.222;2024-03-25T02:39:31;6.80;;;2.03;;
4053;SDS011;2042;47.956;9.222;2024-03-25T02:41:58;2.07;;;1.90;;
4053;SDS011;2042;47.956;9.222;2024-03-25T02:44:24;2.67;;;2.23;;
4053;SDS011;2042;47.956;9.222;2024-03-25T02:46:50;3.33;;;2.87;;
4053;SDS011;2042;47.956;9.222;2024-03-25T02:49:17;1.80;;;1.70;;
4053;SDS011;2042;47.956;9.222;2024-03-25T02:51:42;4.87;;;2.47;;
4053;SDS011;2042;47.956;9.222;2024-03-25T02:54:08;2.73;;;2.03;;
4053;SDS011;2042;47.956;9.222;2024-03-25T02:56:34;2.40;;;1.63;;
4053;SDS011;2042;47.956;9.222;2024-03-25T02:59:00;2.60;;;2.40;;
4053;SDS011;2042;47.956;9.222;2024-03-25T03:01:26;3.13;;;2.40;;
4053;SDS011;2042;47.956;9.222;2024-03-25T03:03:52;2.60;;;2.20;;
4053;SDS011;2042;47.956;9.222;2024-03-25T03:06:18;2.20;;;1.90;;
4053;SDS011;2042;47.956;9.222;2024-03-25T03:08:44;2.40;;;2.03;;
4053;SDS011;2042;47.956;9.222;2024-03-25T03:11:09;2.77;;;2.23;;
4053;SDS011;2042;47.956;9.222;2024-03-25T03:13:35;3.87;;;2.40;;
4053;SDS011;2042;47.956;9.222;2024-03-25T03:16:01;3.20;;;2.70;;
4053;SDS011;2042;47.956;9.222;2024-03-25T03:18:27;2.73;;;2.53;;
4053;SDS011;2042;47.956;9.222;2024-03-25T03:20:53;3.30;;;3.03;;
4053;SDS011;2042;47.956;9.222;2024-03-25T03:23:21;3.07;;;2.57;;
4053;SDS011;2042;47.956;9.222;2024-03-25T03:25:49;3.10;;;2.80;;
4053;SDS011;2042;47.956;9.222;2024-03-25T03:28:15;3.47;;;2.53;;
4053;SDS011;2042;47.956;9.222;2024-03-25T03:30:42;4.27;;;2.73;;
4053;SDS011;2042;47.956;9.222;2024-03-25T03:33:07;3.00;;;2.17;;
4053;SDS011;2042;47.956;9.222;2024-03-25T03:35:33;6.80;;;2.10;;
4053;SDS011;2042;47.956;9.222;2024-03-25T03:38:00;5.03;;;3.23;;
4053;SDS011;2042;47.956;9.222;2024-03-25T03:40:25;2.70;;;2.20;;
4053;SDS011;2042;47.956;9.222;2024-03-25T03:42:53;3.60;;;2.33;;
4053;SDS011;2042;47.956;9.222;2024-03-25T03:45:19;2.57;;;2.40;;
4053;SDS011;2042;47.956;9.222;2024-03-25T03:47:44;2.70;;;2.27;;
4053;SDS011;2042;47.956;9.222;2024-03-25T03:50:10;2.23;;;2.03;;
4053;SDS011;2042;47.956;9.222;2024-03-25T03:52:36;2.50;;;2.30;;
4053;SDS011;2042;47.956;9.222;2024-03-25T03:55:01;2.50;;;1.90;;
4053;SDS011;2042;47.956;9.222;2024-03-25T03:57:27;2.17;;;1.93;;
4053;SDS011;2042;47.956;9.222;2024-03-25T03:59:53;2.70;;;2.50;;
4053;SDS011;2042;47.956;9.222;2024-03-25T04:02:19;3.00;;;2.70;;
4053;SDS011;2042;47.956;9.222;2024-03-25T04:04:45;2.40;;;1.97;;
4053;SDS011;2042;47.956;9.222;2024-03-25T04:07:11;3.37;;;3.07;;
4053;SDS011;2042;47.956;9.222;2024-03-25T04:09:36;3.50;;;2.80;;
4053;SDS011;2042;47.956;9.222;2024-03-25T04:12:02;6.80;;;3.40;;
4053;SDS011;2042;47.956;9.222;2024-03-25T04:14:28;3.10;;;2.50;;
4053;SDS011;2042;47.956;9.222;2024-03-25T04:16:53;2.37;;;2.20;;
4053;SDS011;2042;47.956;9.222;2024-03-25T04:19:23;2.90;;;2.63;;
4053;SDS011;2042;47.956;9.222;2024-03-25T04:21:49;7.50;;;2.80;;
4053;SDS011;2042;47.956;9.222;2024-03-25T04:24:14;4.87;;;3.30;;
4053;SDS011;2042;47.956;9.222;2024-03-25T04:26:40;2.97;;;2.77;;
4053;SDS011;2042;47.956;9.222;2024-03-25T04:29:05;3.27;;;2.47;;
4053;SDS011;2042;47.956;9.222;2024-03-25T04:31:31;3.23;;;2.77;;
4053;SDS011;2042;47.956;9.222;2024-03-25T04:33:57;3.67;;;3.37;;
4053;SDS011;2042;47.956;9.222;2024-03-25T04:36:22;7.73;;;3.80;;
4053;SDS011;2042;47.956;9.222;2024-03-25T04:38:48;4.90;;;3.80;;
4053;SDS011;2042;47.956;9.222;2024-03-25T04:41:14;6.30;;;3.73;;
4053;SDS011;2042;47.956;9.222;2024-03-25T04:43:40;4.07;;;3.27;;
4053;SDS011;2042;47.956;9.222;2024-03-25T04:46:06;4.80;;;3.37;;
4053;SDS011;2042;47.956;9.222;2024-03-25T04:48:31;5.50;;;3.40;;
4053;SDS011;2042;47.956;9.222;2024-03-25T04:50:57;3.70;;;2.57;;
4053;SDS011;2042;47.956;9.222;2024-03-25T04:53:22;2.60;;;2.40;;
4053;SDS011;2042;47.956;9.222;2024-03-25T04:55:48;2.70;;;2.50;;
4053;SDS011;2042;47.956;9.222;2024-03-25T04:58:14;3.30;;;2.63;;
4053;SDS011;2042;47.956;9.222;2024-03-25T05:00:39;4.67;;;2.83;;
4053;SDS011;2042;47.956;9.222;2024-03-25T05:03:05;3.33;;;2.53;;
4053;SDS011;2042;47.956;9.222;2024-03-25T05:05:31;2.30;;;2.10;;
4053;SDS011;2042;47.956;9.222;2024-03-25T05:07:56;5.40;;;4.20;;
4053;SDS011;2042;47.956;9.222;2024-03-25T05:10:22;3.83;;;2.90;;
4053;SDS011;2042;47.956;9.222;2024-03-25T05:12:48;5.07;;;3.70;;
4053;SDS011;2042;47.956;9.222;2024-03-25T05:15:14;2.87;;;2.67;;
4053;SDS011;2042;47.956;9.222;2024-03-25T05:17:40;5.60;;;3.50;;
4053;SDS011;2042;47.956;9.222;2024-03-25T05:20:06;3.50;;;2.67;;
4053;SDS011;2042;47.956;9.222;2024-03-25T05:22:32;5.27;;;3.47;;
4053;SDS011;2042;47.956;9.222;2024-03-25T05:24:58;3.40;;;3.03;;
4053;SDS011;2042;47.956;9.222;2024-03-25T05:27:23;13.03;;;3.87;;
4053;SDS011;2042;47.956;9.222;2024-03-25T05:29:49;4.60;;;3.60;;
4053;SDS011;2042;47.956;9.222;2024-03-25T05:32:15;8.30;;;3.60;;
4053;SDS011;2042;47.956;9.222;2024-03-25T05:34:42;4.77;;;3.50;;
4053;SDS011;2042;47.956;9.222;2024-03-25T05:37:08;5.80;;;3.60;;
4053;SDS011;2042;47.956;9.222;2024-03-25T05:39:34;4.40;;;4.00;;
4053;SDS011;2042;47.956;9.222;2024-03-25T05:42:00;5.70;;;4.27;;
4053;SDS011;2042;47.956;9.222;2024-03-25T05:44:25;8.00;;;3.43;;
4053;SDS011;2042;47.956;9.222;2024-03-25T05:46:51;5.10;;;4.20;;
4053;SDS011;2042;47.956;9.222;2024-03-25T05:49:16;3.97;;;3.40;;
4053;SDS011;2042;47.956;9.222;2024-03-25T05:51:42;6.17;;;3.97;;
4053;SDS011;2042;47.956;9.222;2024-03-25T05:54:08;4.63;;;3.20;;
4053;SDS011;2042;47.956;9.222;2024-03-25T05:56:33;4.40;;;4.00;;
4053;SDS011;2042;47.956;9.222;2024-03-25T05:58:59;5.83;;;3.80;;
4053;SDS011;2042;47.956;9.222;2024-03-25T06:01:26;4.60;;;3.83;;
4053;SDS011;2042;47.956;9.222;2024-03-25T06:03:52;6.33;;;4.30;;
4053;SDS011;2042;47.956;9.222;2024-03-25T06:06:18;6.10;;;4.33;;
4053;SDS011;2042;47.956;9.222;2024-03-25T06:08:43;4.37;;;3.97;;
4053;SDS011;2042;47.956;9.222;2024-03-25T06:11:09;11.40;;;5.73;;
4053;SDS011;2042;47.956;9.222;2024-03-25T06:13:35;10.40;;;4.60;;
4053;SDS011;2042;47.956;9.222;2024-03-25T06:16:00;10.85;;;6.57;;
4053;SDS011;2042;47.956;9.222;2024-03-25T06:18:26;8.83;;;4.50;;
4053;SDS011;2042;47.956;9.222;2024-03-25T06:20:52;9.30;;;4.63;;
4053;SDS011;2042;47.956;9.222;2024-03-25T06:23:27;7.33;;;4.63;;
4053;SDS011;2042;47.956;9.222;2024-03-25T06:25:53;8.47;;;4.90;;
4053;SDS011;2042;47.956;9.222;2024-03-25T06:28:20;7.47;;;3.67;;
4053;SDS011;2042;47.956;9.222;2024-03-25T06:30:46;8.40;;;3.97;;
4053;SDS011;2042;47.956;9.222;2024-03-25T06:33:31;8.70;;;5.77;;
4053;SDS011;2042;47.956;9.222;2024-03-25T06:36:16;6.50;;;4.90;;
4053;SDS011;2042;47.956;9.222;2024-03-25T06:38:42;7.30;;;4.37;;
4053;SDS011;2042;47.956;9.222;2024-03-25T06:41:08;11.83;;;4.73;;
4053;SDS011;2042;47.956;9.222;2024-03-25T06:43:34;5.40;;;3.80;;
4053;SDS011;2042;47.956;9.222;2024-03-25T06:46:01;8.07;;;5.53;;
4053;SDS011;2042;47.956;9.222;2024-03-25T06:48:27;5.97;;;4.70;;
4053;SDS011;2042;47.956;9.222;2024-03-25T06:50:53;5.43;;;4.23;;
4053;SDS011;2042;47.956;9.222;2024-03-25T06:53:20;10.10;;;4.07;;
4053;SDS011;2042;47.956;9.222;2024-03-25T06:55:55;7.03;;;4.03;;
4053;SDS011;2042;47.956;9.222;2024-03-25T06:58:23;6.87;;;5.30;;
4053;SDS011;2042;47.956;9.222;2024-03-25T07:00:50;6.67;;;4.47;;
4053;SDS011;2042;47.956;9.222;2024-03-25T07:03:16;5.80;;;4.57;;
4053;SDS011;2042;47.956;9.222;2024-03-25T07:05:47;5.80;;;4.40;;
4053;SDS011;2042;47.956;9.222;2024-03-25T07:08:13;6.10;;;4.37;;
4053;SDS011;2042;47.956;9.222;2024-03-25T07:10:42;7.07;;;4.87;;
4053;SDS011;2042;47.956;9.222;2024-03-25T07:13:08;6.07;;;4.13;;
4053;SDS011;2042;47.956;9.222;2024-03-25T07:15:35;4.70;;;3.70;;
4053;SDS011;2042;47.956;9.222;2024-03-25T07:18:01;8.93;;;5.10;;
4053;SDS011;2042;47.956;9.222;2024-03-25T07:20:28;5.13;;;4.10;;
4053;SDS011;2042;47.956;9.222;2024-03-25T07:22:54;4.77;;;4.17;;
4053;SDS011;2042;47.956;9.222;2024-03-25T07:25:20;4.80;;;4.30;;
4053;SDS011;2042;47.956;9.222;2024-03-25T07:27:47;7.77;;;4.77;;
4053;SDS011;2042;47.956;9.222;2024-03-25T07:30:13;6.80;;;4.83;;
4053;SDS011;2042;47.956;9.222;2024-03-25T07:32:39;4.77;;;3.60;;
4053;SDS011;2042;47.956;9.222;2024-03-25T07:35:05;4.87;;;3.67;;
4053;SDS011;2042;47.956;9.222;2024-03-25T07:37:32;3.87;;;3.57;;
4053;SDS011;2042;47.956;9.222;2024-03-25T07:39:58;5.90;;;3.67;;
4053;SDS011;2042;47.956;9.222;2024-03-25T07:42:24;7.20;;;4.77;;
4053;SDS011;2042;47.956;9.222;2024-03-25T07:44:50;4.50;;;4.10;;
4053;SDS011;2042;47.956;9.222;2024-03-25T07:47:16;5.57;;;3.87;;
4053;SDS011;2042;47.956;9.222;2024-03-25T07:49:41;3.83;;;3.50;;
4053;SDS011;2042;47.956;9.222;2024-03-25T07:52:07;4.30;;;3.40;;
4053;SDS011;2042;47.956;9.222;2024-03-25T07:54:33;3.77;;;3.30;;
4053;SDS011;2042;47.956;9.222;2024-03-25T07:56:58;4.67;;;4.00;;
4053;SDS011;2042;47.956;9.222;2024-03-25T07:59:24;4.00;;;3.40;;
4053;SDS011;2042;47.956;9.222;2024-03-25T08:01:49;3.60;;;3.30;;
4053;SDS011;2042;47.956;9.222;2024-03-25T08:04:15;4.80;;;3.07;;
4053;SDS011;2042;47.956;9.222;2024-03-25T08:06:41;3.40;;;3.10;;
4053;SDS011;2042;47.956;9.222;2024-03-25T08:09:07;3.20;;;2.90;;
4053;SDS011;2042;47.956;9.222;2024-03-25T08:11:34;3.23;;;2.93;;
4053;SDS011;2042;47.956;9.222;2024-03-25T08:14:00;2.67;;;2.47;;
4053;SDS011;2042;47.956;9.222;2024-03-25T08:16:26;3.33;;;2.50;;
4053;SDS011;2042;47.956;9.222;2024-03-25T08:18:52;4.53;;;2.80;;
4053;SDS011;2042;47.956;9.222;2024-03-25T08:21:17;6.73;;;2.87;;
4053;SDS011;2042;47.956;9.222;2024-03-25T08:23:46;4.20;;;3.00;;
4053;SDS011;2042;47.956;9.222;2024-03-25T08:26:12;3.63;;;2.93;;
4053;SDS011;2042;47.956;9.222;2024-03-25T08:28:37;5.93;;;2.73;;
4053;SDS011;2042;47.956;9.222;2024-03-25T08:31:03;3.93;;;2.63;;
4053;SDS011;2042;47.956;9.222;2024-03-25T08:33:29;2.57;;;2.00;;
4053;SDS011;2042;47.956;9.222;2024-03-25T08:35:55;3.63;;;2.80;;
4053;SDS011;2042;47.956;9.222;2024-03-25T08:38:21;8.20;;;2.97;;
4053;SDS011;2042;47.956;9.222;2024-03-25T08:40:47;5.60;;;2.77;;
4053;SDS011;2042;47.956;9.222;2024-03-25T08:43:13;6.03;;;2.07;;
4053;SDS011;2042;47.956;9.222;2024-03-25T08:45:38;2.63;;;2.37;;
4053;SDS011;2042;47.956;9.222;2024-03-25T08:48:05;2.10;;;1.90;;
4053;SDS011;2042;47.956;9.222;2024-03-25T08:50:31;3.53;;;1.93;;
4053;SDS011;2042;47.956;9.222;2024-03-25T08:52:57;2.67;;;2.00;;
4053;SDS011;2042;47.956;9.222;2024-03-25T08:55:23;4.80;;;2.23;;
4053;SDS011;2042;47.956;9.222;2024-03-25T08:57:48;3.63;;;3.33;;
4053;SDS011;2042;47.956;9.222;2024-03-25T09:00:14;4.73;;;2.33;;
4053;SDS011;2042;47.956;9.222;2024-03-25T09:02:40;1.70;;;1.53;;
4053;SDS011;2042;47.956;9.222;2024-03-25T09:05:06;3.40;;;2.60;;
4053;SDS011;2042;47.956;9.222;2024-03-25T09:07:33;3.60;;;2.00;;
4053;SDS011;2042;47.956;9.222;2024-03-25T09:09:59;2.17;;;1.90;;
4053;SDS011;2042;47.956;9.222;2024-03-25T09:12:44;2.67;;;1.90;;
4053;SDS011;2042;47.956;9.222;2024-03-25T09:15:09;2.10;;;1.90;;
4053;SDS011;2042;47.956;9.222;2024-03-25T09:17:35;2.47;;;2.20;;
4053;SDS011;2042;47.956;9.222;2024-03-25T09:20:01;4.70;;;2.20;;
4053;SDS011;2042;47.956;9.222;2024-03-25T09:22:30;1.90;;;1.50;;
4053;SDS011;2042;47.956;9.222;2024-03-25T09:24:56;1.93;;;1.83;;
4053;SDS011;2042;47.956;9.222;2024-03-25T09:27:21;2.40;;;1.70;;
4053;SDS011;2042;47.956;9.222;2024-03-25T09:29:47;1.70;;;1.60;;
4053;SDS011;2042;47.956;9.222;2024-03-25T09:32:13;5.53;;;1.90;;
4053;SDS011;2042;47.956;9.222;2024-03-25T09:34:38;4.10;;;3.20;;
4053;SDS011;2042;47.956;9.222;2024-03-25T09:37:04;1.90;;;1.63;;
4053;SDS011;2042;47.956;9.222;2024-03-25T09:39:30;2.83;;;1.33;;
4053;SDS011;2042;47.956;9.222;2024-03-25T09:41:55;2.07;;;1.40;;
4053;SDS011;2042;47.956;9.222;2024-03-25T09:44:27;2.07;;;1.23;;
4053;SDS011;2042;47.956;9.222;2024-03-25T09:46:56;6.27;;;1.80;;
4053;SDS011;2042;47.956;9.222;2024-03-25T09:49:21;1.50;;;1.33;;
4053;SDS011;2042;47.956;9.222;2024-03-25T09:51:48;2.13;;;1.27;;
4053;SDS011;2042;47.956;9.222;2024-03-25T09:54:14;2.60;;;1.50;;
4053;SDS011;2042;47.956;9.222;2024-03-25T09:56:40;3.10;;;1.43;;
4053;SDS011;2042;47.956;9.222;2024-03-25T09:59:06;1.80;;;1.40;;
4053;SDS011;2042;47.956;9.222;2024-03-25T10:01:32;2.03;;;1.40;;
4053;SDS011;2042;47.956;9.222;2024-03-25T10:03:58;1.93;;;1.30;;
4053;SDS011;2042;47.956;9.222;2024-03-25T10:06:23;1.40;;;1.30;;
4053;SDS011;2042;47.956;9.222;2024-03-25T10:08:53;1.90;;;1.60;;
4053;SDS011;2042;47.956;9.222;2024-03-25T10:11:19;2.07;;;1.40;;
4053;SDS011;2042;47.956;9.222;2024-03-25T10:13:44;4.50;;;1.57;;
4053;SDS011;2042;47.956;9.222;2024-03-25T10:16:10;3.90;;;1.43;;
4053;SDS011;2042;47.956;9.222;2024-03-25T10:18:36;4.13;;;1.40;;
4053;SDS011;2042;47.956;9.222;2024-03-25T10:21:02;1.40;;;1.30;;
4053;SDS011;2042;47.956;9.222;2024-03-25T10:23:28;2.17;;;1.30;;
4053;SDS011;2042;47.956;9.222;2024-03-25T10:25:54;4.13;;;1.50;;
4053;SDS011;2042;47.956;9.222;2024-03-25T10:28:20;2.70;;;1.30;;
4053;SDS011;2042;47.956;9.222;2024-03-25T10:30:46;2.07;;;1.60;;
4053;SDS011;2042;47.956;9.222;2024-03-25T10:33:12;2.03;;;1.60;;
4053;SDS011;2042;47.956;9.222;2024-03-25T10:35:38;1.53;;;1.30;;
4053;SDS011;2042;47.956;9.222;2024-03-25T10:38:05;1.50;;;1.20;;
4053;SDS011;2042;47.956;9.222;2024-03-25T10:40:36;1.83;;;1.10;;
4053;SDS011;2042;47.956;9.222;2024-03-25T10:43:08;3.43;;;1.47;;
4053;SDS011;2042;47.956;9.222;2024-03-25T10:45:42;1.57;;;1.10;;
4053;SDS011;2042;47.956;9.222;2024-03-25T10:48:15;1.93;;;1.07;;
4053;SDS011;2042;47.956;9.222;2024-03-25T10:50:51;1.30;;;1.20;;
4053;SDS011;2042;47.956;9.222;2024-03-25T10:53:20;1.80;;;1.20;;
4053;SDS011;2042;47.956;9.222;2024-03-25T10:55:48;2.10;;;1.30;;
4053;SDS011;2042;47.956;9.222;2024-03-25T10:58:18;1.47;;;1.10;;
4053;SDS011;2042;47.956;9.222;2024-03-25T11:00:46;2.10;;;1.50;;
4053;SDS011;2042;47.956;9.222;2024-03-25T11:03:14;2.97;;;1.53;;
4053;SDS011;2042;47.956;9.222;2024-03-25T11:05:39;1.83;;;1.40;;
4053;SDS011;2042;47.956;9.222;2024-03-25T11:08:15;1.80;;;1.30;;
4053;SDS011;2042;47.956;9.222;2024-03-25T11:10:48;1.47;;;1.00;;
4053;SDS011;2042;47.956;9.222;2024-03-25T11:13:18;1.20;;;1.10;;
4053;SDS011;2042;47.956;9.222;2024-03-25T11:15:44;2.60;;;1.30;;
4053;SDS011;2042;47.956;9.222;2024-03-25T11:18:15;1.50;;;1.40;;
4053;SDS011;2042;47.956;9.222;2024-03-25T11:20:41;1.80;;;1.10;;
4053;SDS011;2042;47.956;9.222;2024-03-25T11:23:11;3.40;;;1.47;;
4053;SDS011;2042;47.956;9.222;2024-03-25T11:25:38;2.30;;;1.20;;
4053;SDS011;2042;47.956;9.222;2024-03-25T11:28:05;2.30;;;1.23;;
4053;SDS011;2042;47.956;9.222;2024-03-25T11:30:31;3.10;;;1.37;;
4053;SDS011;2042;47.956;9.222;2024-03-25T11:32:58;1.90;;;1.27;;
4053;SDS011;2042;47.956;9.222;2024-03-25T11:35:27;3.23;;;1.10;;
4053;SDS011;2042;47.956;9.222;2024-03-25T11:37:52;1.57;;;1.17;;
4053;SDS011;2042;47.956;9.222;2024-03-25T11:40:18;3.10;;;1.50;;
4053;SDS011;2042;47.956;9.222;2024-03-25T11:42:45;2.70;;;1.10;;
4053;SDS011;2042;47.956;9.222;2024-03-25T11:45:15;1.53;;;1.37;;
4053;SDS011;2042;47.956;9.222;2024-03-25T11:47:46;3.23;;;1.57;;
4053;SDS011;2042;47.956;9.222;2024-03-25T11:50:14;2.50;;;1.50;;
4053;SDS011;2042;47.956;9.222;2024-03-25T11:52:43;1.30;;;1.20;;
4053;SDS011;2042;47.956;9.222;2024-03-25T11:55:09;1.00;;;0.90;;
4053;SDS011;2042;47.956;9.222;2024-03-25T11:57:36;1.47;;;1.13;;
4053;SDS011;2042;47.956;9.222;2024-03-25T12:00:03;1.33;;;1.23;;
4053;SDS011;2042;47.956;9.222;2024-03-25T12:02:30;2.50;;;1.10;;
4053;SDS011;2042;47.956;9.222;2024-03-25T12:04:57;1.93;;;1.30;;
4053;SDS011;2042;47.956;9.222;2024-03-25T12:07:23;2.93;;;1.37;;
4053;SDS011;2042;47.956;9.222;2024-03-25T12:09:48;1.07;;;0.90;;
4053;SDS011;2042;47.956;9.222;2024-03-25T12:12:33;0.87;;;0.70;;
4053;SDS011;2042;47.956;9.222;2024-03-25T12:15:04;1.20;;;1.00;;
4053;SDS011;2042;47.956;9.222;2024-03-25T12:17:32;2.00;;;1.40;;
4053;SDS011;2042;47.956;9.222;2024-03-25T12:20:02;1.73;;;1.30;;
4053;SDS011;2042;47.956;9.222;2024-03-25T12:22:32;1.10;;;1.00;;
4053;SDS011;2042;47.956;9.222;2024-03-25T12:25:00;3.80;;;0.90;;
4053;SDS011;2042;47.956;9.222;2024-03-25T12:27:29;1.10;;;0.80;;
4053;SDS011;2042;47.956;9.222;2024-03-25T12:30:05;1.13;;;1.03;;
4053;SDS011;2042;47.956;9.222;2024-03-25T12:32:44;0.80;;;0.80;;
4053;SDS011;2042;47.956;9.222;2024-03-25T12:35:10;1.47;;;1.00;;
4053;SDS011;2042;47.956;9.222;2024-03-25T12:37:38;1.30;;;0.97;;
4053;SDS011;2042;47.956;9.222;2024-03-25T12:40:05;1.57;;;1.00;;
4053;SDS011;2042;47.956;9.222;2024-03-25T12:42:33;1.40;;;0.90;;
4053;SDS011;2042;47.956;9.222;2024-03-25T12:44:59;1.30;;;0.90;;
4053;SDS011;2042;47.956;9.222;2024-03-25T12:47:25;1.47;;;1.13;;
4053;SDS011;2042;47.956;9.222;2024-03-25T12:49:51;0.97;;;0.87;;
4053;SDS011;2042;47.956;9.222;2024-03-25T12:52:17;1.40;;;1.00;;
4053;SDS011;2042;47.956;9.222;2024-03-25T12:54:43;1.13;;;1.03;;
4053;SDS011;2042;47.956;9.222;2024-03-25T12:57:08;1.27;;;1.17;;
4053;SDS011;2042;47.956;9.222;2024-03-25T12:59:34;1.10;;;1.00;;
4053;SDS011;2042;47.956;9.222;2024-03-25T13:02:00;1.50;;;1.20;;
4053;SDS011;2042;47.956;9.222;2024-03-25T13:04:26;1.87;;;1.20;;
4053;SDS011;2042;47.956;9.222;2024-03-25T13:06:52;1.10;;;1.00;;
4053;SDS011;2042;47.956;9.222;2024-03-25T13:09:17;1.33;;;1.10;;
4053;SDS011;2042;47.956;9.222;2024-03-25T13:11:43;1.53;;;1.00;;
4053;SDS011;2042;47.956;9.222;2024-03-25T13:14:11;4.20;;;1.00;;
4053;SDS011;2042;47.956;9.222;2024-03-25T13:16:37;2.63;;;1.30;;
4053;SDS011;2042;47.956;9.222;2024-03-25T13:19:03;1.83;;;0.83;;
4053;SDS011;2042;47.956;9.222;2024-03-25T13:21:29;1.30;;;1.17;;
4053;SDS011;2042;47.956;9.222;2024-03-25T13:23:55;3.27;;;1.13;;
4053;SDS011;2042;47.956;9.222;2024-03-25T13:26:20;2.60;;;1.00;;
4053;SDS011;2042;47.956;9.222;2024-03-25T13:28:46;1.13;;;1.03;;
4053;SDS011;2042;47.956;9.222;2024-03-25T13:31:11;1.77;;;1.10;;
4053;SDS011;2042;47.956;9.222;2024-03-25T13:33:40;1.63;;;0.90;;
4053;SDS011;2042;47.956;9.222;2024-03-25T13:36:07;1.50;;;0.90;;
4053;SDS011;2042;47.956;9.222;2024-03-25T13:38:33;1.07;;;0.97;;
4053;SDS011;2042;47.956;9.222;2024-03-25T13:40:59;2.60;;;1.20;;
4053;SDS011;2042;47.956;9.222;2024-03-25T13:43:26;2.17;;;1.13;;
4053;SDS011;2042;47.956;9.222;2024-03-25T13:45:52;1.53;;;1.00;;
4053;SDS011;2042;47.956;9.222;2024-03-25T13:48:17;1.50;;;1.40;;
4053;SDS011;2042;47.956;9.222;2024-03-25T13:50:44;1.90;;;1.00;;
4053;SDS011;2042;47.956;9.222;2024-03-25T13:53:09;1.63;;;1.03;;
4053;SDS011;2042;47.956;9.222;2024-03-25T13:55:35;1.43;;;0.90;;
4053;SDS011;2042;47.956;9.222;2024-03-25T13:58:01;1.37;;;1.27;;
4053;SDS011;2042;47.956;9.222;2024-03-25T14:00:27;2.00;;;1.23;;
4053;SDS011;2042;47.956;9.222;2024-03-25T14:02:56;3.43;;;1.17;;
4053;SDS011;2042;47.956;9.222;2024-03-25T14:05:23;0.93;;;0.80;;
4053;SDS011;2042;47.956;9.222;2024-03-25T14:07:49;1.00;;;0.90;;
4053;SDS011;2042;47.956;9.222;2024-03-25T14:10:15;2.70;;;1.27;;
4053;SDS011;2042;47.956;9.222;2024-03-25T14:12:40;1.13;;;1.03;;
4053;SDS011;2042;47.956;9.222;2024-03-25T14:15:07;1.03;;;0.90;;
4053;SDS011;2042;47.956;9.222;2024-03-25T14:17:33;1.00;;;0.83;;
4053;SDS011;2042;47.956;9.222;2024-03-25T14:19:58;3.90;;;1.23;;
4053;SDS011;2042;47.956;9.222;2024-03-25T14:22:24;1.20;;;1.00;;
4053;SDS011;2042;47.956;9.222;2024-03-25T14:24:50;1.90;;;1.00;;
4053;SDS011;2042;47.956;9.222;2024-03-25T14:27:21;1.90;;;1.00;;
4053;SDS011;2042;47.956;9.222;2024-03-25T14:29:47;1.43;;;1.23;;
4053;SDS011;2042;47.956;9.222;2024-03-25T14:32:13;1.43;;;1.33;;
4053;SDS011;2042;47.956;9.222;2024-03-25T14:34:38;2.03;;;1.20;;
4053;SDS011;2042;47.956;9.222;2024-03-25T14:37:04;1.10;;;0.90;;
4053;SDS011;2042;47.956;9.222;2024-03-25T14:39:30;2.13;;;1.30;;
4053;SDS011;2042;47.956;9.222;2024-03-25T14:41:56;1.60;;;1.43;;
4053;SDS011;2042;47.956;9.222;2024-03-25T14:44:21;1.57;;;1.00;;
4053;SDS011;2042;47.956;9.222;2024-03-25T14:46:47;1.93;;;1.30;;
4053;SDS011;2042;47.956;9.222;2024-03-25T14:49:13;3.57;;;1.90;;
4053;SDS011;2042;47.956;9.222;2024-03-25T14:51:38;3.73;;;1.03;;
4053;SDS011;2042;47.956;9.222;2024-03-25T14:54:04;1.90;;;1.03;;
4053;SDS011;2042;47.956;9.222;2024-03-25T14:56:31;1.50;;;1.03;;
4053;SDS011;2042;47.956;9.222;2024-03-25T14:58:57;1.10;;;1.00;;
4053;SDS011;2042;47.956;9.222;2024-03-25T15:01:23;1.30;;;1.00;;
4053;SDS011;2042;47.956;9.222;2024-03-25T15:03:49;5.33;;;1.63;;
4053;SDS011;2042;47.956;9.222;2024-03-25T15:06:15;1.00;;;0.90;;
4053;SDS011;2042;47.956;9.222;2024-03-25T15:08:40;3.50;;;0.90;;
4053;SDS011;2042;47.956;9.222;2024-03-25T15:11:07;1.20;;;1.10;;